createdAt,value
2023-05-16T00:00:58.678Z,12.65
2023-05-16T00:03:25.618Z,12.20
2023-05-16T00:05:52.251Z,9.30
2023-05-16T00:08:18.926Z,9.25
2023-05-16T00:10:45.403Z,14.27
2023-05-16T00:13:11.904Z,11.32
2023-05-16T00:15:38.745Z,12.57
2023-05-16T00:18:05.860Z,12.88
2023-05-16T00:20:32.376Z,10.68
2023-05-16T00:23:01.292Z,13.25
2023-05-16T00:25:28.690Z,13.10
2023-05-16T00:27:55.347Z,13.45
2023-05-16T00:30:22.738Z,15.63
2023-05-16T00:32:49.615Z,15.00
2023-05-16T00:35:16.133Z,11.90
2023-05-16T00:37:42.599Z,15.55
2023-05-16T00:40:09.564Z,11.35
2023-05-16T00:42:36.294Z,20.70
2023-05-16T00:45:02.853Z,12.65
2023-05-16T00:47:29.412Z,14.35
2023-05-16T00:49:56.684Z,17.90
2023-05-16T00:52:23.273Z,14.70
2023-05-16T00:54:51.070Z,17.30
2023-05-16T00:57:17.836Z,27.67
2023-05-16T00:59:46.330Z,22.25
2023-05-16T01:02:13.698Z,17.50
2023-05-16T01:04:40.449Z,20.58
2023-05-16T01:07:25.478Z,20.50
2023-05-16T01:09:52.386Z,22.48
2023-05-16T01:12:57.074Z,31.70
2023-05-16T01:15:31.554Z,22.55
2023-05-16T01:18:08.909Z,19.50
2023-05-16T01:21:04.955Z,20.90
2023-05-16T01:23:46.347Z,17.17
2023-05-16T01:26:22.369Z,21.95
2023-05-16T01:28:51.174Z,22.90
2023-05-16T01:31:18.302Z,33.83
2023-05-16T01:33:45.115Z,29.33
2023-05-16T01:36:15.956Z,29.83
2023-05-16T01:38:50.765Z,24.45
2023-05-16T01:41:41.486Z,23.92
2023-05-16T01:44:16.201Z,27.88
2023-05-16T01:46:45.960Z,20.73
2023-05-16T01:49:19.907Z,21.52
2023-05-16T01:51:54.106Z,17.38
2023-05-16T01:54:25.013Z,21.70
2023-05-16T01:56:53.336Z,23.65
2023-05-16T01:59:24.417Z,21.35
2023-05-16T02:01:59.370Z,21.70
2023-05-16T02:04:26.380Z,17.60
2023-05-16T02:06:53.055Z,25.13
2023-05-16T02:09:19.548Z,20.38
2023-05-16T02:11:46.955Z,21.80
2023-05-16T02:14:13.555Z,20.60
2023-05-16T02:16:40.189Z,21.35
2023-05-16T02:19:06.723Z,22.80
2023-05-16T02:21:33.291Z,19.27
2023-05-16T02:23:59.798Z,27.23
2023-05-16T02:26:26.397Z,19.55
2023-05-16T02:28:52.854Z,14.95
2023-05-16T02:31:27.240Z,18.45
2023-05-16T02:33:53.978Z,28.98
2023-05-16T02:36:21.214Z,22.98
2023-05-16T02:38:48.780Z,25.08
2023-05-16T02:41:15.388Z,17.13
2023-05-16T02:43:41.825Z,16.63
2023-05-16T02:46:25.850Z,18.02
2023-05-16T02:48:52.687Z,17.10
2023-05-16T02:51:21.344Z,18.63
2023-05-16T02:53:47.850Z,22.95
2023-05-16T02:56:14.515Z,18.13
2023-05-16T02:58:41.734Z,23.17
2023-05-16T03:01:08.843Z,17.08
2023-05-16T03:03:37.541Z,21.58
2023-05-16T03:06:04.172Z,25.88
2023-05-16T03:08:30.939Z,23.30
2023-05-16T03:10:57.400Z,26.58
2023-05-16T03:13:24.136Z,19.17
2023-05-16T03:15:51.837Z,21.58
2023-05-16T03:18:18.344Z,20.67
2023-05-16T03:20:44.856Z,21.20
2023-05-16T03:23:11.369Z,26.30
2023-05-16T03:25:38.247Z,22.60
2023-05-16T03:28:07.880Z,17.08
2023-05-16T03:30:35.229Z,24.80
2023-05-16T03:33:02.281Z,24.38
2023-05-16T03:35:29.372Z,25.42
2023-05-16T03:37:56.233Z,28.92
2023-05-16T03:40:22.734Z,21.98
2023-05-16T03:42:49.269Z,23.98
2023-05-16T03:45:16.052Z,25.25
2023-05-16T03:47:42.734Z,27.45
2023-05-16T03:50:09.976Z,27.02
2023-05-16T03:52:36.890Z,21.42
2023-05-16T03:55:04.147Z,27.70
2023-05-16T03:57:32.469Z,27.73
2023-05-16T03:59:59.293Z,27.88
2023-05-16T04:02:25.942Z,31.85
2023-05-16T04:04:52.576Z,25.08
2023-05-16T04:07:19.394Z,30.75
2023-05-16T04:09:46.764Z,28.80
2023-05-16T04:12:13.218Z,23.42
2023-05-16T04:14:39.631Z,29.60
2023-05-16T04:17:06.325Z,27.27
2023-05-16T04:19:32.781Z,23.55
2023-05-16T04:21:59.209Z,25.15
2023-05-16T04:24:28.776Z,29.73
2023-05-16T04:26:55.646Z,26.10
2023-05-16T04:29:22.159Z,35.15
2023-05-16T04:31:48.781Z,29.40
2023-05-16T04:34:16.249Z,24.70
2023-05-16T04:36:42.807Z,23.75
2023-05-16T04:39:09.363Z,26.63
2023-05-16T04:41:36.202Z,23.95
2023-05-16T04:44:04.388Z,54.38
2023-05-16T04:46:31.294Z,27.23
2023-05-16T04:48:57.811Z,24.80
2023-05-16T04:51:24.492Z,25.35
2023-05-16T04:53:50.989Z,29.95
2023-05-16T04:56:17.881Z,26.45
2023-05-16T04:58:44.375Z,29.02
2023-05-16T05:01:10.925Z,28.92
2023-05-16T05:03:37.690Z,24.63
2023-05-16T05:06:04.608Z,26.63
2023-05-16T05:08:31.084Z,27.05
2023-05-16T05:10:57.567Z,21.70
2023-05-16T05:13:24.217Z,23.15
2023-05-16T05:15:52.295Z,23.58
2023-05-16T05:18:19.237Z,34.60
2023-05-16T05:20:45.824Z,28.70
2023-05-16T05:23:12.533Z,37.50
2023-05-16T05:25:39.579Z,27.65
2023-05-16T05:28:06.156Z,26.65
2023-05-16T05:30:32.733Z,29.88
2023-05-16T05:32:59.436Z,27.00
2023-05-16T05:35:26.414Z,27.45
2023-05-16T05:37:53.189Z,27.98
2023-05-16T05:40:19.658Z,25.73
2023-05-16T05:42:47.273Z,29.48
2023-05-16T05:45:15.383Z,30.05
2023-05-16T05:47:42.569Z,25.02
2023-05-16T05:50:11.474Z,20.88
2023-05-16T05:52:38.384Z,19.33
2023-05-16T05:55:05.250Z,26.00
2023-05-16T05:57:31.831Z,24.23
2023-05-16T05:59:58.281Z,25.27
2023-05-16T06:02:24.933Z,22.20
2023-05-16T06:04:54.040Z,22.15
2023-05-16T06:07:20.596Z,19.30
2023-05-16T06:09:47.137Z,20.40
2023-05-16T06:12:13.593Z,22.77
2023-05-16T06:14:40.030Z,20.70
2023-05-16T06:17:06.468Z,19.98
2023-05-16T06:19:33.008Z,17.27
2023-05-16T06:21:59.437Z,18.88
2023-05-16T06:24:26.267Z,15.57
2023-05-16T06:26:52.713Z,19.65
2023-05-16T06:29:19.201Z,23.67
2023-05-16T06:31:47.185Z,22.52
2023-05-16T06:34:13.731Z,18.10
2023-05-16T06:36:40.177Z,20.70
2023-05-16T06:39:06.783Z,20.08
2023-05-16T06:41:33.970Z,20.30
2023-05-16T06:44:00.406Z,14.77
2023-05-16T06:46:26.964Z,16.63
2023-05-16T06:48:53.510Z,18.15
2023-05-16T06:51:20.016Z,13.32
2023-05-16T06:53:46.541Z,14.10
2023-05-16T06:56:13.049Z,16.25
2023-05-16T06:58:39.760Z,18.85
2023-05-16T07:01:06.303Z,11.32
2023-05-16T07:03:33.045Z,14.68
2023-05-16T07:05:59.596Z,11.55
2023-05-16T07:08:26.147Z,14.80
2023-05-16T07:10:52.679Z,16.70
2023-05-16T07:13:19.231Z,16.00
2023-05-16T07:15:45.953Z,14.90
2023-05-16T07:18:12.593Z,14.70
2023-05-16T07:20:39.148Z,14.32
2023-05-16T07:23:05.721Z,15.13
2023-05-16T07:25:32.385Z,14.60
2023-05-16T07:27:59.801Z,10.95
2023-05-16T07:30:26.440Z,12.15
2023-05-16T07:32:52.972Z,10.77
2023-05-16T07:35:19.660Z,12.93
2023-05-16T07:37:46.475Z,13.88
2023-05-16T07:40:13.788Z,14.65
2023-05-16T07:42:40.400Z,11.55
2023-05-16T07:45:07.635Z,9.25
2023-05-16T07:47:34.314Z,9.80
2023-05-16T07:50:00.998Z,9.70
2023-05-16T07:52:27.680Z,7.22
2023-05-16T07:54:54.520Z,9.10
2023-05-16T07:57:23.215Z,13.35
2023-05-16T07:59:52.371Z,7.28
2023-05-16T08:02:19.490Z,11.05
2023-05-16T08:04:46.969Z,13.48
2023-05-16T08:07:13.651Z,9.07
2023-05-16T08:09:40.346Z,11.07
2023-05-16T08:12:07.391Z,9.30
2023-05-16T08:14:34.113Z,11.38
2023-05-16T08:17:00.914Z,15.48
2023-05-16T08:19:27.902Z,11.88
2023-05-16T08:21:55.107Z,7.85
2023-05-16T08:24:21.657Z,6.03
2023-05-16T08:26:48.345Z,15.48
2023-05-16T08:29:14.943Z,6.03
2023-05-16T08:31:41.562Z,7.20
2023-05-16T08:34:09.479Z,9.82
2023-05-16T08:36:39.109Z,8.20
2023-05-16T08:39:06.033Z,11.80
2023-05-16T08:41:32.592Z,9.05
2023-05-16T08:43:59.293Z,7.15
2023-05-16T08:46:26.562Z,8.60
2023-05-16T08:48:54.054Z,7.75
2023-05-16T08:51:21.549Z,9.48
2023-05-16T08:53:57.612Z,6.80
2023-05-16T08:56:24.970Z,6.63
2023-05-16T08:58:55.197Z,10.48
2023-05-16T09:01:23.031Z,8.95
2023-05-16T09:03:51.119Z,5.53
2023-05-16T09:06:17.790Z,7.45
2023-05-16T09:08:44.480Z,7.45
2023-05-16T09:11:11.066Z,10.15
2023-05-16T09:13:38.983Z,5.47
2023-05-16T09:16:09.811Z,8.07
2023-05-16T09:18:37.474Z,8.55
2023-05-16T09:21:06.260Z,10.35
2023-05-16T09:23:35.104Z,10.70
2023-05-16T09:26:05.324Z,8.20
2023-05-16T09:28:31.952Z,10.27
2023-05-16T09:30:59.955Z,7.97
2023-05-16T09:33:29.964Z,11.35
2023-05-16T09:36:00.819Z,12.43
2023-05-16T09:38:28.481Z,10.00
2023-05-16T09:40:55.849Z,10.85
2023-05-16T09:43:28.531Z,6.07
2023-05-16T09:45:56.072Z,21.30
2023-05-16T09:48:23.765Z,7.97
2023-05-16T09:50:53.328Z,9.70
2023-05-16T09:53:32.403Z,5.28
2023-05-16T09:56:10.982Z,14.80
2023-05-16T09:58:42.628Z,13.32
2023-05-16T10:03:41.238Z,7.72
2023-05-16T10:08:36.989Z,10.85
2023-05-16T10:11:06.447Z,11.27
2023-05-16T10:13:37.699Z,16.13
2023-05-16T10:16:11.319Z,11.25
2023-05-16T10:18:40.792Z,14.25
2023-05-16T10:21:14.843Z,17.38
2023-05-16T10:23:49.190Z,11.38
2023-05-16T10:26:17.376Z,13.27
2023-05-16T10:28:44.667Z,13.05
2023-05-16T10:31:11.828Z,9.00
2023-05-16T10:33:39.891Z,12.93
2023-05-16T10:36:15.608Z,9.90
2023-05-16T10:38:43.037Z,14.90
2023-05-16T10:41:10.171Z,8.52
2023-05-16T10:43:36.814Z,13.75
2023-05-16T10:46:05.574Z,9.07
2023-05-16T10:48:42.261Z,13.15
2023-05-16T10:51:23.813Z,14.35
2023-05-16T10:53:54.738Z,16.90
2023-05-16T10:56:26.726Z,13.40
2023-05-16T10:58:54.493Z,17.15
2023-05-16T11:01:27.107Z,10.43
2023-05-16T11:03:57.273Z,23.60
2023-05-16T11:06:25.697Z,21.05
2023-05-16T11:09:06.796Z,15.52
2023-05-16T11:11:48.983Z,20.90
2023-05-16T11:14:25.593Z,15.32
2023-05-16T11:16:55.462Z,15.68
2023-05-16T11:19:34.286Z,15.55
2023-05-16T11:22:19.395Z,18.85
2023-05-16T11:25:05.459Z,13.50
2023-05-16T11:27:33.959Z,15.05
2023-05-16T11:30:11.229Z,13.90
2023-05-16T11:32:39.982Z,18.00
2023-05-16T11:35:09.599Z,15.45
2023-05-16T11:37:39.337Z,17.77
2023-05-16T11:40:08.553Z,21.05
2023-05-16T11:42:44.087Z,18.55
2023-05-16T11:45:13.122Z,21.05
2023-05-16T11:47:40.653Z,14.82
2023-05-16T11:50:17.224Z,19.45
2023-05-16T11:52:47.540Z,17.80
2023-05-16T11:55:39.489Z,14.80
2023-05-16T11:58:02.780Z,16.73
2023-05-16T12:00:29.304Z,20.73
2023-05-16T12:03:03.135Z,15.80
2023-05-16T12:05:32.100Z,13.95
2023-05-16T12:07:59.882Z,14.27
2023-05-16T12:10:26.889Z,12.90
2023-05-16T12:12:54.980Z,15.60
2023-05-16T12:15:22.695Z,13.70
2023-05-16T12:17:49.520Z,10.13
2023-05-16T12:20:16.687Z,15.80
2023-05-16T12:22:47.166Z,21.42
2023-05-16T12:25:24.001Z,14.02
2023-05-16T12:27:51.126Z,23.38
2023-05-16T12:30:18.814Z,10.65
2023-05-16T12:32:45.918Z,15.43
2023-05-16T12:35:13.293Z,14.30
2023-05-16T12:37:39.861Z,18.23
2023-05-16T12:40:10.815Z,25.27
2023-05-16T12:42:38.016Z,21.77
2023-05-16T12:45:05.553Z,23.38
2023-05-16T12:47:36.992Z,15.85
2023-05-16T12:50:08.861Z,27.23
2023-05-16T12:52:35.331Z,18.90
2023-05-16T12:55:02.066Z,18.27
2023-05-16T12:57:28.734Z,18.67
2023-05-16T12:59:55.219Z,15.02
2023-05-16T13:02:22.591Z,15.80
2023-05-16T13:04:49.106Z,19.33
2023-05-16T13:07:17.560Z,16.35
2023-05-16T13:09:44.170Z,14.65
2023-05-16T13:12:10.980Z,15.18
2023-05-16T13:14:37.474Z,15.52
2023-05-16T13:17:04.643Z,13.38
2023-05-16T13:19:31.867Z,22.17
2023-05-16T13:21:58.482Z,14.25
2023-05-16T13:24:25.065Z,12.07
2023-05-16T13:26:51.552Z,12.43
2023-05-16T13:29:18.208Z,16.00
2023-05-16T13:31:44.876Z,14.15
2023-05-16T13:34:11.452Z,15.68
2023-05-16T13:36:52.138Z,16.60
2023-05-16T13:39:20.134Z,17.02
2023-05-16T13:41:48.997Z,14.27
2023-05-16T13:44:16.217Z,21.55
2023-05-16T13:46:43.171Z,13.85
2023-05-16T13:49:09.810Z,16.02
2023-05-16T13:51:36.407Z,16.48
2023-05-16T13:54:02.976Z,15.80
2023-05-16T13:56:29.444Z,17.70
2023-05-16T13:59:03.645Z,14.82
2023-05-16T14:01:32.858Z,9.55
2023-05-16T14:03:59.604Z,14.63
2023-05-16T14:06:26.359Z,15.90
2023-05-16T14:08:52.880Z,10.05
2023-05-16T14:11:19.926Z,15.10
2023-05-16T14:13:46.633Z,12.38
2023-05-16T14:16:13.219Z,15.27
2023-05-16T14:18:39.733Z,9.05
2023-05-16T14:21:06.340Z,15.65
2023-05-16T14:23:32.860Z,12.25
2023-05-16T14:25:59.315Z,11.73
2023-05-16T14:28:25.800Z,9.63
2023-05-16T14:30:52.288Z,11.70
2023-05-16T14:33:18.933Z,8.25
2023-05-16T14:35:45.489Z,13.90
2023-05-16T14:38:11.969Z,10.82
2023-05-16T14:40:38.650Z,11.05
2023-05-16T14:43:05.212Z,12.82
2023-05-16T14:45:31.771Z,15.00
2023-05-16T14:47:58.284Z,22.67
2023-05-16T14:50:24.896Z,13.43
2023-05-16T14:52:52.672Z,6.85
2023-05-16T14:55:20.035Z,8.23
2023-05-16T14:57:48.850Z,7.57
2023-05-16T15:00:17.544Z,11.88
2023-05-16T15:02:44.761Z,17.23
2023-05-16T15:05:11.323Z,17.48
2023-05-16T15:07:37.887Z,9.25
2023-05-16T15:10:04.633Z,9.40
2023-05-16T15:12:31.265Z,7.80
2023-05-16T15:14:57.801Z,9.32
2023-05-16T15:17:24.620Z,10.35
2023-05-16T15:19:53.141Z,10.68
2023-05-16T15:22:22.745Z,12.57
2023-05-16T15:24:49.373Z,9.40
2023-05-16T15:27:16.105Z,8.75
2023-05-16T15:29:42.609Z,12.70
2023-05-16T15:32:09.568Z,10.00
2023-05-16T15:34:36.144Z,9.10
2023-05-16T15:37:02.830Z,6.80
2023-05-16T15:39:29.386Z,10.52
2023-05-16T15:42:10.210Z,9.98
2023-05-16T15:44:38.344Z,8.50
2023-05-16T15:47:05.363Z,14.27
2023-05-16T15:49:31.886Z,8.10
2023-05-16T15:51:58.458Z,9.35
2023-05-16T15:54:24.964Z,5.82
2023-05-16T15:56:51.607Z,6.20
2023-05-16T15:59:18.250Z,8.60
2023-05-16T16:01:44.859Z,8.07
2023-05-16T16:04:11.726Z,11.23
2023-05-16T16:06:38.409Z,8.45
2023-05-16T16:09:05.142Z,9.02
2023-05-16T16:11:31.917Z,8.27
2023-05-16T16:13:58.606Z,14.43
2023-05-16T16:16:25.198Z,6.95
2023-05-16T16:18:52.048Z,10.85
2023-05-16T16:21:18.721Z,10.43
2023-05-16T16:23:45.466Z,6.22
2023-05-16T16:26:11.983Z,5.60
2023-05-16T16:28:38.854Z,16.52
2023-05-16T16:31:05.514Z,9.60
2023-05-16T16:33:32.193Z,7.88
2023-05-16T16:35:59.424Z,6.45
2023-05-16T16:38:26.345Z,10.00
2023-05-16T16:40:53.209Z,6.50
2023-05-16T16:43:19.785Z,4.95
2023-05-16T16:45:46.398Z,7.68
2023-05-16T16:48:12.930Z,8.73
2023-05-16T16:50:40.173Z,6.18
2023-05-16T16:53:06.730Z,11.68
2023-05-16T16:55:33.411Z,6.95
2023-05-16T16:58:02.387Z,8.10
2023-05-16T17:00:31.596Z,9.25
2023-05-16T17:02:58.738Z,5.97
2023-05-16T17:05:25.636Z,6.82
2023-05-16T17:07:52.524Z,3.97
2023-05-16T17:10:19.012Z,7.82
2023-05-16T17:12:49.396Z,7.25
2023-05-16T17:15:19.762Z,6.07
2023-05-16T17:17:49.304Z,10.48
2023-05-16T17:20:16.019Z,10.02
2023-05-16T17:22:42.546Z,10.07
2023-05-16T17:25:09.808Z,6.57
2023-05-16T17:27:36.317Z,8.70
2023-05-16T17:30:04.635Z,8.88
2023-05-16T17:32:31.711Z,4.30
2023-05-16T17:35:00.416Z,17.98
2023-05-16T17:37:27.016Z,10.57
2023-05-16T17:39:53.536Z,4.68
2023-05-16T17:42:20.021Z,8.60
2023-05-16T17:44:46.544Z,7.72
2023-05-16T17:47:13.666Z,9.55
2023-05-16T17:49:40.730Z,9.75
2023-05-16T17:52:07.799Z,8.98
2023-05-16T17:54:34.339Z,10.70
2023-05-16T17:57:01.746Z,11.05
2023-05-16T17:59:28.449Z,11.77
2023-05-16T18:01:57.432Z,13.82
2023-05-16T18:04:24.460Z,9.32
2023-05-16T18:06:54.491Z,15.77
2023-05-16T18:09:21.161Z,10.20
2023-05-16T18:11:47.692Z,7.20
2023-05-16T18:14:14.414Z,10.25
2023-05-16T18:16:40.971Z,17.67
2023-05-16T18:19:08.777Z,6.53
2023-05-16T18:21:36.429Z,4.70
2023-05-16T18:24:03.029Z,10.68
2023-05-16T18:26:29.831Z,8.32
2023-05-16T18:28:58.049Z,8.38
2023-05-16T18:31:24.716Z,8.63
2023-05-16T18:33:51.756Z,8.35
2023-05-16T18:36:18.766Z,9.10
2023-05-16T18:38:45.653Z,9.65
2023-05-16T18:41:12.235Z,8.82
2023-05-16T18:43:38.752Z,13.80
2023-05-16T18:46:05.280Z,6.90
2023-05-16T18:48:33.417Z,9.98
2023-05-16T18:51:02.222Z,9.40
2023-05-16T18:53:28.701Z,8.63
2023-05-16T18:55:56.007Z,7.10
2023-05-16T18:58:22.565Z,13.70
2023-05-16T19:00:49.132Z,8.98
2023-05-16T19:03:15.741Z,12.63
2023-05-16T19:05:42.588Z,9.43
2023-05-16T19:08:09.315Z,9.75
2023-05-16T19:10:38.508Z,11.48
2023-05-16T19:13:08.744Z,11.27
2023-05-16T19:15:36.317Z,9.32
2023-05-16T19:18:04.943Z,11.07
2023-05-16T19:20:33.609Z,12.15
2023-05-16T19:23:00.386Z,4.95
2023-05-16T19:25:27.234Z,9.23
2023-05-16T19:27:54.544Z,12.05
2023-05-16T19:30:21.222Z,6.97
2023-05-16T19:32:47.812Z,6.75
2023-05-16T19:35:14.646Z,8.70
2023-05-16T19:37:41.175Z,8.25
2023-05-16T19:40:08.407Z,6.50
2023-05-16T19:42:34.977Z,7.05
2023-05-16T19:45:01.615Z,12.38
2023-05-16T19:47:28.252Z,10.45
2023-05-16T19:49:55.111Z,7.97
2023-05-16T19:52:21.793Z,10.77
2023-05-16T19:54:48.357Z,11.73
2023-05-16T19:57:14.975Z,6.13
2023-05-16T19:59:41.493Z,7.45
2023-05-16T20:02:08.171Z,8.15
2023-05-16T20:04:34.729Z,6.93
2023-05-16T20:07:01.230Z,11.45
2023-05-16T20:09:28.513Z,8.77
2023-05-16T20:11:57.273Z,8.35
2023-05-16T20:14:23.830Z,9.20
2023-05-16T20:16:51.448Z,12.70
2023-05-16T20:19:19.216Z,6.25
2023-05-16T20:21:46.457Z,7.70
2023-05-16T20:24:13.626Z,6.47
2023-05-16T20:26:40.495Z,8.18
2023-05-16T20:29:07.032Z,6.85
2023-05-16T20:31:33.674Z,7.28
2023-05-16T20:34:00.505Z,6.13
2023-05-16T20:36:27.132Z,9.50
2023-05-16T20:38:53.744Z,9.90
2023-05-16T20:41:20.334Z,7.55
2023-05-16T20:43:46.884Z,13.38
2023-05-16T20:46:13.552Z,7.72
2023-05-16T20:48:40.121Z,10.50
2023-05-16T20:51:06.810Z,6.00
2023-05-16T20:53:33.371Z,6.63
2023-05-16T20:55:59.858Z,6.82
2023-05-16T20:58:26.306Z,11.63
2023-05-16T21:00:52.797Z,3.75
2023-05-16T21:03:19.267Z,8.75
2023-05-16T21:05:45.845Z,6.53
2023-05-16T21:08:12.370Z,5.60
2023-05-16T21:10:39.140Z,6.72
2023-05-16T21:13:06.170Z,6.10
2023-05-16T21:15:32.761Z,8.13
2023-05-16T21:17:59.420Z,13.00
2023-05-16T21:20:28.411Z,10.90
2023-05-16T21:22:54.989Z,11.00
2023-05-16T21:25:21.734Z,8.38
2023-05-16T21:27:48.243Z,9.10
2023-05-16T21:30:14.963Z,8.35
2023-05-16T21:32:41.597Z,3.95
2023-05-16T21:35:08.968Z,6.25
2023-05-16T21:37:35.570Z,8.40
2023-05-16T21:40:02.340Z,8.50
2023-05-16T21:42:28.821Z,5.97
2023-05-16T21:44:55.443Z,6.03
2023-05-16T21:47:21.939Z,4.65
2023-05-16T21:49:48.453Z,4.38
2023-05-16T21:52:15.105Z,5.22
2023-05-16T21:54:41.852Z,12.25
2023-05-16T21:57:08.340Z,9.48
2023-05-16T21:59:34.815Z,8.25
2023-05-16T22:02:01.331Z,10.75
2023-05-16T22:04:28.055Z,6.40
2023-05-16T22:06:54.600Z,6.88
2023-05-16T22:09:21.178Z,6.63
2023-05-16T22:11:47.762Z,8.13
2023-05-16T22:14:14.322Z,4.32
2023-05-16T22:16:40.797Z,10.98
2023-05-16T22:19:08.882Z,4.40
2023-05-16T22:21:36.039Z,6.65
2023-05-16T22:24:02.544Z,7.38
2023-05-16T22:26:29.066Z,8.63
2023-05-16T22:28:55.641Z,8.38
2023-05-16T22:31:22.156Z,6.20
2023-05-16T22:33:48.674Z,8.95
2023-05-16T22:36:15.214Z,6.57
2023-05-16T22:38:41.826Z,4.55
2023-05-16T22:41:08.362Z,9.50
2023-05-16T22:43:35.171Z,14.07
2023-05-16T22:46:03.145Z,7.43
2023-05-16T22:48:29.947Z,4.25
2023-05-16T22:50:57.318Z,4.47
2023-05-16T22:53:23.989Z,11.07
2023-05-16T22:55:50.925Z,6.68
2023-05-16T22:58:17.899Z,8.60
2023-05-16T23:00:44.418Z,8.07
2023-05-16T23:03:11.101Z,8.57
2023-05-16T23:05:37.636Z,11.65
2023-05-16T23:08:04.407Z,10.32
2023-05-16T23:10:31.426Z,8.95
2023-05-16T23:12:58.008Z,4.32
2023-05-16T23:15:24.507Z,9.07
2023-05-16T23:17:51.770Z,9.60
2023-05-16T23:20:18.427Z,10.38
2023-05-16T23:22:44.951Z,9.10
2023-05-16T23:25:11.571Z,9.15
2023-05-16T23:27:38.070Z,6.28
2023-05-16T23:30:05.073Z,4.70
2023-05-16T23:32:31.634Z,8.02
2023-05-16T23:34:58.221Z,11.25
2023-05-16T23:37:24.822Z,12.57
2023-05-16T23:39:51.284Z,7.10
2023-05-16T23:42:17.765Z,11.23
2023-05-16T23:44:44.236Z,8.38
2023-05-16T23:47:10.781Z,6.13
2023-05-16T23:49:37.441Z,10.88
2023-05-16T23:52:05.900Z,12.98
2023-05-16T23:54:33.586Z,13.88
2023-05-16T23:57:00.145Z,15.18
2023-05-16T23:59:26.773Z,8.77
